1993 LENA (1993023S14120)


On this page: IBTrACS data - Map and Plots - Positions - Intensities - Original source data

Summary

Start Jan 22
End Feb 3
Basin SI
LMI 64 kt
Sources jtwc_sh
bom
neumann
In WMO? Yes
Previous storm 1993 DESSILIA (SI)
Previous in basin 1993 DESSILIA (SI)
Concurrent storms 1993 EDWINA (SI)
1993 DESSILIA (SI)
1993 LENA (SI)
1993 HSK1493 (SP)
1993 LIN (SP)
1993 MICK (SP)
Next in basin 1993 HSK1493 (SP)
Next storm 1993 HSK1493 (SP)

top of page IBTrACS Data: File Access

top of page HURSAT Data: File Access

Image of storm

top of page Plots:

Map of storm track will not appear if FTP is down
Time series of cyclone Maximum Sustained Wind will not appear if FTP is down
Time series of cyclone Minimum Central Pressure will not appear if FTP is down

top of page Track Data:Position

jtwc_sh bom neumann
Date Lat Lon Lat Lon Lat Lon
1993-01-22 18:00:00 -14.2 119.8 -14.2 119.8
1993-01-23 00:00:00 -13.8 120.0 -13.8 120.0
1993-01-23 06:00:00 -13.5 120.3 -13.5 120.3
1993-01-23 12:00:00 -13.6 120.7 -13.6 120.7
1993-01-23 18:00:00 -14.0 120.8 -14.0 120.8
1993-01-24 00:00:00 -14.3 120.6 -13.7 120.8 -14.3 120.6
1993-01-24 06:00:00 -14.6 120.2 -13.9 120.6 -14.6 120.2
1993-01-24 12:00:00 -14.8 119.5 -14.2 120.6 -14.8 119.5
1993-01-24 18:00:00 -15.0 118.9 -14.7 120.5 -15.0 118.9
1993-01-25 00:00:00 -15.3 118.9 -15.3 120.0 -15.3 118.9
1993-01-25 06:00:00 -15.6 119.0 -15.6 119.5 -15.6 119.0
1993-01-25 12:00:00 -15.9 118.9 -16.2 119.2 -15.9 118.9
1993-01-25 18:00:00 -16.2 118.6 -16.2 118.7 -16.2 118.6
1993-01-26 00:00:00 -16.2 118.1 -16.1 118.1 -16.2 118.1
1993-01-26 06:00:00 -16.1 117.6 -15.8 117.5 -16.1 117.6
1993-01-26 12:00:00 -15.9 117.1 -15.5 116.9 -15.9 117.1
1993-01-26 18:00:00 -15.6 116.7 -15.2 116.3 -15.6 116.7
1993-01-27 00:00:00 -15.4 116.1 -15.3 115.7 -15.4 116.1
1993-01-27 06:00:00 -15.4 115.3 -16.0 115.3 -15.4 115.3
1993-01-27 12:00:00 -15.5 114.5 -16.3 114.8 -15.5 114.5
1993-01-27 18:00:00 -15.6 113.7 -16.3 114.0 -15.6 113.7
1993-01-28 00:00:00 -15.7 112.7 -16.3 113.2 -15.7 112.7
1993-01-28 06:00:00 -15.8 111.6 -16.2 112.4 -15.8 111.6
1993-01-28 12:00:00 -15.9 110.5 -16.1 111.5 -15.9 110.5
1993-01-28 18:00:00 -15.9 109.9 -16.0 110.2 -15.9 109.9
jtwc_sh bom neumann
1993-01-29 00:00:00 -15.9 109.4 -15.9 109.2 -15.9 109.4
1993-01-29 06:00:00 -15.9 109.0 -15.8 108.7 -15.9 109.0
1993-01-29 12:00:00 -15.8 108.8 -15.7 108.1 -15.8 108.8
1993-01-29 18:00:00 -15.7 108.8 -15.5 107.4 -15.7 108.8
1993-01-30 00:00:00 -15.7 108.9 -15.3 106.9 -15.7 108.9
1993-01-30 06:00:00 -15.7 109.0 -15.4 107.0 -15.7 109.0
1993-01-30 12:00:00 -15.8 109.1 -15.5 107.3 -15.8 109.1
1993-01-30 18:00:00 -15.9 109.2 -15.6 107.5 -15.9 109.2
1993-01-31 00:00:00 -15.9 109.4 -15.7 107.7 -15.9 109.4
1993-01-31 06:00:00 -16.0 109.7 -15.9 108.1 -16.0 109.7
1993-01-31 12:00:00 -16.2 110.1 -16.3 108.9 -16.2 110.1
1993-01-31 18:00:00 -16.2 110.6 -16.8 109.9 -16.2 110.6
1993-02-01 00:00:00 -16.2 111.4 -16.9 110.9 -16.2 111.4
1993-02-01 06:00:00 -16.2 112.4 -16.9 112.0 -16.2 112.4
1993-02-01 12:00:00 -16.2 113.4 -16.8 113.4 -16.2 113.4
1993-02-01 18:00:00 -16.2 114.4 -16.6 114.7 -16.2 114.4
1993-02-02 00:00:00 -16.1 115.4 -16.1 115.9 -16.1 115.4
1993-02-02 06:00:00 -16.1 116.5 -15.8 117.2 -16.1 116.5
1993-02-02 12:00:00 -16.1 117.6 -15.9 118.7 -16.1 117.6
1993-02-02 18:00:00 -15.9 120.2
1993-02-03 00:00:00 -15.9 121.6

top of pageTrack Data:Intensity

jtwc_sh bom neumann
Date Wind Pres Wind Pres Wind Pres
1993-01-22 18:00:00 20. 20.
1993-01-23 00:00:00 25. 25.
1993-01-23 06:00:00 25. 25.
1993-01-23 12:00:00 25. 25.
1993-01-23 18:00:00 25. 25.
1993-01-24 00:00:00 30. 31. 997. 30.
1993-01-24 06:00:00 35. 41. 990. 35.
1993-01-24 12:00:00 35. 47. 985. 35.
1993-01-24 18:00:00 40. 47. 985. 40.
1993-01-25 00:00:00 45. 47. 985. 45.
1993-01-25 06:00:00 45. 54. 980. 45.
1993-01-25 12:00:00 50. 60. 975. 50.
1993-01-25 18:00:00 50. 64. 972. 50.
1993-01-26 00:00:00 55. 60. 975. 55.
1993-01-26 06:00:00 55. 60. 975. 55.
1993-01-26 12:00:00 50. 54. 980. 50.
1993-01-26 18:00:00 50. 41. 990. 50.
1993-01-27 00:00:00 50. 41. 990. 50.
1993-01-27 06:00:00 50. 41. 990. 50.
1993-01-27 12:00:00 50. 41. 990. 50.
1993-01-27 18:00:00 50. 39. 992. 50.
1993-01-28 00:00:00 50. 35. 995. 50.
1993-01-28 06:00:00 45. 35. 995. 45.
1993-01-28 12:00:00 40. 35. 995. 40.
1993-01-28 18:00:00 40. 39. 992. 40.
jtwc_sh bom neumann
1993-01-29 00:00:00 35. 39. 992. 35.
1993-01-29 06:00:00 35. 39. 992. 35.
1993-01-29 12:00:00 35. 41. 990. 35.
1993-01-29 18:00:00 35. 41. 990. 35.
1993-01-30 00:00:00 35. 41. 990. 35.
1993-01-30 06:00:00 35. 41. 990. 35.
1993-01-30 12:00:00 35. 41. 990. 35.
1993-01-30 18:00:00 35. 45. 988. 35.
1993-01-31 00:00:00 35. 45. 988. 35.
1993-01-31 06:00:00 35. 45. 988. 35.
1993-01-31 12:00:00 35. 45. 988. 35.
1993-01-31 18:00:00 35. 45. 988. 35.
1993-02-01 00:00:00 35. 45. 988. 35.
1993-02-01 06:00:00 30. 45. 988. 30.
1993-02-01 12:00:00 30. 41. 990. 30.
1993-02-01 18:00:00 30. 41. 990. 30.
1993-02-02 00:00:00 30. 39. 992. 30.
1993-02-02 06:00:00 30. 35. 995. 30.
1993-02-02 12:00:00 30. 27. 1000. 30.
1993-02-02 18:00:00 19. 1005.
1993-02-03 00:00:00 19. 1005.

top of page Links to source data

Source Source file Format
jtwc_sh bsh131993.txt ATCF
bom IDCKMSTM0S.csv:Line=18723:LENA CSV file (from Excel file)
neumann tracks.sh:Storm=965:LENA:BSH131993:JTWC&BM622 HURDAT